ΕΜΥ, Εθνική Μετεωρολογική Υπηρεσία - Δελτία Καιρού, Προγνώσεις

ΑΕΡΟΝΑΥΤΙΛΙΑ

GREEK AIRPORTS CODES

LGMK 211150Z 36020KT 9999 FEW010 27/18 Q1014 RMK FEW018=

EUROPEAN AIRPORTS CODES

LFPO 211130Z 05005KT 320V120 9999 FEW043 BKN250 22/11 Q1027NOSIG=